CXA021 KCHS-CYUL
Flight info
| Callsign | CXA021 |
|---|---|
| Flight time | 1h 50m |
| Altitude | 33000 |
| Route | SWPFX3 FILLI DCT AUDII DCT FLUKY DCT HOTEE DCT HNK DCT KRAZZ DCT PBERG CARTR5 |
| Aircraft | MD11/H-SDE1E2E3FGHIJ2J3J4J5M1RWXY/LB1D1 |
Departure
| Time | 2026-04-16 20:07 |
|---|---|
| Airport | Charleston International Airport (KCHS) |
Arrival
| Time | 2026-04-16 21:57 |
|---|---|
| Airport | Montreal / Pierre Elliott Trudeau International Airport (CYUL) |
| Time | Latitude | Longitude | Altitude | Speed | Heading |
|---|---|---|---|---|---|
| 2026-04-16 19:35 | 32.88450 | -80.04073 | 39 ft | 0 kts | 116° |
| 2026-04-16 19:54 | 32.88453 | -80.04081 | 39 ft | 4 kts | 112° |
| 2026-04-16 19:54 | 32.88459 | -80.04108 | 39 ft | 4 kts | 82° |
| 2026-04-16 19:54 | 32.88452 | -80.04137 | 36 ft | 4 kts | 62° |
| 2026-04-16 19:55 | 32.88444 | -80.04157 | 36 ft | 1 kts | 70° |
| 2026-04-16 19:55 | 32.88443 | -80.04160 | 36 ft | 0 kts | 70° |
| 2026-04-16 19:57 | 32.88444 | -80.04158 | 36 ft | 2 kts | 70° |
| 2026-04-16 19:58 | 32.88464 | -80.04136 | 35 ft | 5 kts | 26° |
| 2026-04-16 19:58 | 32.88535 | -80.04098 | 39 ft | 10 kts | 34° |
| 2026-04-16 19:58 | 32.88582 | -80.04028 | 37 ft | 12 kts | 50° |
| 2026-04-16 19:58 | 32.88617 | -80.04005 | 40 ft | 5 kts | 4° |
| 2026-04-16 19:59 | 32.88673 | -80.04048 | 40 ft | 9 kts | 315° |
| 2026-04-16 19:59 | 32.88674 | -80.04098 | 40 ft | 7 kts | 241° |
| 2026-04-16 19:59 | 32.88627 | -80.04181 | 40 ft | 16 kts | 231° |
| 2026-04-16 20:00 | 32.88488 | -80.04509 | 38 ft | 23 kts | 277° |
| 2026-04-16 20:00 | 32.88575 | -80.04637 | 37 ft | 18 kts | 335° |
| 2026-04-16 20:00 | 32.88680 | -80.04693 | 37 ft | 16 kts | 335° |
| 2026-04-16 20:00 | 32.88770 | -80.04701 | 37 ft | 11 kts | 32° |
| 2026-04-16 20:01 | 32.88836 | -80.04655 | 38 ft | 13 kts | 27° |
| 2026-04-16 20:01 | 32.88939 | -80.04598 | 40 ft | 19 kts | 24° |
| 2026-04-16 20:01 | 32.89082 | -80.04522 | 43 ft | 26 kts | 24° |
| 2026-04-16 20:01 | 32.89264 | -80.04460 | 50 ft | 30 kts | 360° |
| 2026-04-16 20:02 | 32.89470 | -80.04460 | 52 ft | 27 kts | 1° |
| 2026-04-16 20:02 | 32.89643 | -80.04456 | 55 ft | 23 kts | 1° |
| 2026-04-16 20:02 | 32.89794 | -80.04452 | 55 ft | 21 kts | 1° |
| 2026-04-16 20:02 | 32.89946 | -80.04448 | 54 ft | 23 kts | 1° |
| 2026-04-16 20:03 | 32.90111 | -80.04443 | 53 ft | 23 kts | 1° |
| 2026-04-16 20:03 | 32.90266 | -80.04441 | 51 ft | 22 kts | 0° |
| 2026-04-16 20:03 | 32.90407 | -80.04443 | 49 ft | 17 kts | 349° |
| 2026-04-16 20:03 | 32.90497 | -80.04506 | 48 ft | 14 kts | 328° |
| 2026-04-16 20:04 | 32.90579 | -80.04567 | 48 ft | 17 kts | 328° |
| 2026-04-16 20:04 | 32.90693 | -80.04655 | 50 ft | 21 kts | 327° |
| 2026-04-16 20:04 | 32.90828 | -80.04757 | 52 ft | 25 kts | 327° |
| 2026-04-16 20:04 | 32.90977 | -80.04872 | 55 ft | 25 kts | 327° |
| 2026-04-16 20:05 | 32.91099 | -80.04968 | 53 ft | 12 kts | 327° |
| 2026-04-16 20:05 | 32.91162 | -80.05000 | 53 ft | 6 kts | 2° |
| 2026-04-16 20:05 | 32.91196 | -80.04983 | 53 ft | 6 kts | 36° |
| 2026-04-16 20:05 | 32.91235 | -80.04919 | 54 ft | 13 kts | 58° |
| 2026-04-16 20:06 | 32.91274 | -80.04814 | 56 ft | 10 kts | 95° |
| 2026-04-16 20:06 | 32.91237 | -80.04759 | 57 ft | 11 kts | 147° |
| 2026-04-16 20:06 | 32.90934 | -80.04532 | 53 ft | 99 kts | 148° |
| 2026-04-16 20:06 | 32.90116 | -80.03919 | 100 ft | 170 kts | 149° |
| 2026-04-16 20:07 | 32.89106 | -80.03134 | 995 ft | 163 kts | 150° |
| 2026-04-16 20:07 | 32.88221 | -80.02406 | 2224 ft | 160 kts | 147° |
| 2026-04-16 20:07 | 32.87299 | -80.01473 | 2973 ft | 187 kts | 127° |
| 2026-04-16 20:07 | 32.86953 | -79.99908 | 3342 ft | 219 kts | 83° |
| 2026-04-16 20:08 | 32.87582 | -79.98125 | 3569 ft | 249 kts | 49° |
| 2026-04-16 20:08 | 32.88910 | -79.96793 | 4323 ft | 252 kts | 31° |
| 2026-04-16 20:08 | 32.90368 | -79.95592 | 5241 ft | 257 kts | 33° |
| 2026-04-16 20:08 | 32.91822 | -79.94325 | 6189 ft | 263 kts | 32° |
| 2026-04-16 20:09 | 32.93471 | -79.93296 | 6753 ft | 280 kts | 16° |
| 2026-04-16 20:09 | 32.95424 | -79.92979 | 7399 ft | 286 kts | 357° |
| 2026-04-16 20:09 | 32.97431 | -79.93045 | 8249 ft | 292 kts | 354° |
| 2026-04-16 20:09 | 32.99473 | -79.93178 | 9126 ft | 296 kts | 353° |
| 2026-04-16 20:10 | 33.01547 | -79.93310 | 9984 ft | 301 kts | 353° |
| 2026-04-16 20:10 | 33.03728 | -79.93442 | 10266 ft | 329 kts | 354° |
| 2026-04-16 20:10 | 33.06121 | -79.93575 | 10385 ft | 360 kts | 355° |
| 2026-04-16 20:10 | 33.08695 | -79.93701 | 10858 ft | 374 kts | 355° |
| 2026-04-16 20:11 | 33.11309 | -79.93815 | 11707 ft | 378 kts | 355° |
| 2026-04-16 20:11 | 33.13948 | -79.93924 | 12562 ft | 381 kts | 355° |
| 2026-04-16 20:11 | 33.16609 | -79.94033 | 13397 ft | 384 kts | 355° |
| 2026-04-16 20:11 | 33.19291 | -79.94142 | 14166 ft | 388 kts | 355° |
| 2026-04-16 20:12 | 33.22009 | -79.94124 | 14800 ft | 394 kts | 2° |
| 2026-04-16 20:12 | 33.24741 | -79.93645 | 15465 ft | 400 kts | 8° |
| 2026-04-16 20:12 | 33.27477 | -79.92929 | 16108 ft | 405 kts | 11° |
| 2026-04-16 20:12 | 33.30223 | -79.92128 | 16738 ft | 409 kts | 11° |
| 2026-04-16 20:13 | 33.32996 | -79.91304 | 17362 ft | 413 kts | 11° |
| 2026-04-16 20:13 | 33.35798 | -79.90482 | 17994 ft | 416 kts | 11° |
| 2026-04-16 20:13 | 33.38628 | -79.89667 | 18536 ft | 420 kts | 11° |
| 2026-04-16 20:13 | 33.41488 | -79.88857 | 19037 ft | 424 kts | 10° |
| 2026-04-16 20:14 | 33.44377 | -79.88048 | 19513 ft | 428 kts | 10° |
| 2026-04-16 20:14 | 33.47289 | -79.87236 | 19989 ft | 432 kts | 10° |
| 2026-04-16 20:14 | 33.50234 | -79.86417 | 20446 ft | 436 kts | 10° |
| 2026-04-16 20:14 | 33.53202 | -79.85590 | 20924 ft | 440 kts | 10° |
| 2026-04-16 20:15 | 33.56195 | -79.84757 | 21388 ft | 444 kts | 10° |
| 2026-04-16 20:15 | 33.59215 | -79.83916 | 21867 ft | 448 kts | 10° |
| 2026-04-16 20:15 | 33.62261 | -79.83066 | 22354 ft | 451 kts | 10° |
| 2026-04-16 20:15 | 33.65333 | -79.82208 | 22836 ft | 456 kts | 10° |
| 2026-04-16 20:16 | 33.68435 | -79.81341 | 23332 ft | 460 kts | 10° |
| 2026-04-16 20:16 | 33.71568 | -79.80464 | 23806 ft | 464 kts | 10° |
| 2026-04-16 20:16 | 33.74720 | -79.79582 | 24276 ft | 466 kts | 9° |
| 2026-04-16 20:16 | 33.77890 | -79.78693 | 24764 ft | 469 kts | 9° |
| 2026-04-16 20:17 | 33.81075 | -79.77800 | 25251 ft | 471 kts | 9° |
| 2026-04-16 20:17 | 33.84275 | -79.76901 | 25746 ft | 474 kts | 9° |
| 2026-04-16 20:17 | 33.87499 | -79.75996 | 26240 ft | 477 kts | 9° |
| 2026-04-16 20:17 | 33.90722 | -79.74979 | 26720 ft | 481 kts | 12° |
| 2026-04-16 20:18 | 33.93931 | -79.73792 | 27194 ft | 485 kts | 14° |
| 2026-04-16 20:18 | 33.97150 | -79.72511 | 27639 ft | 488 kts | 14° |
| 2026-04-16 20:18 | 34.00373 | -79.71196 | 28116 ft | 491 kts | 14° |
| 2026-04-16 20:18 | 34.03617 | -79.69871 | 28571 ft | 494 kts | 14° |
| 2026-04-16 20:19 | 34.06881 | -79.68547 | 29016 ft | 496 kts | 14° |
| 2026-04-16 20:19 | 34.10166 | -79.67223 | 29458 ft | 499 kts | 13° |
| 2026-04-16 20:19 | 34.13474 | -79.65898 | 29868 ft | 502 kts | 13° |
| 2026-04-16 20:19 | 34.16802 | -79.64568 | 30254 ft | 505 kts | 13° |
| 2026-04-16 20:20 | 34.20147 | -79.63231 | 30555 ft | 508 kts | 13° |
| 2026-04-16 20:20 | 34.23515 | -79.61885 | 30837 ft | 511 kts | 13° |
| 2026-04-16 20:20 | 34.26897 | -79.60531 | 31137 ft | 513 kts | 13° |
| 2026-04-16 20:20 | 34.30291 | -79.59170 | 31479 ft | 514 kts | 13° |
| 2026-04-16 20:21 | 34.33687 | -79.57806 | 31828 ft | 514 kts | 13° |
| 2026-04-16 20:21 | 34.37082 | -79.56441 | 32176 ft | 514 kts | 13° |
| 2026-04-16 20:21 | 34.40476 | -79.55076 | 32517 ft | 514 kts | 13° |
| 2026-04-16 20:21 | 34.43870 | -79.53711 | 32839 ft | 515 kts | 13° |
| 2026-04-16 20:22 | 34.47275 | -79.52340 | 33008 ft | 516 kts | 13° |
| 2026-04-16 20:22 | 34.50680 | -79.50968 | 33042 ft | 516 kts | 13° |
| 2026-04-16 20:22 | 34.57509 | -79.48212 | 33048 ft | 517 kts | 13° |
| 2026-04-16 20:23 | 34.63181 | -79.45920 | 33047 ft | 517 kts | 13° |
| 2026-04-16 20:23 | 34.70002 | -79.43156 | 33045 ft | 517 kts | 13° |
| 2026-04-16 20:24 | 34.76827 | -79.40377 | 33047 ft | 517 kts | 13° |
| 2026-04-16 20:24 | 34.83653 | -79.37599 | 33047 ft | 518 kts | 13° |
| 2026-04-16 20:25 | 34.90481 | -79.34820 | 33045 ft | 518 kts | 13° |
| 2026-04-16 20:25 | 34.97324 | -79.32032 | 33007 ft | 518 kts | 13° |
| 2026-04-16 20:26 | 35.04160 | -79.29240 | 33006 ft | 518 kts | 13° |
| 2026-04-16 20:26 | 35.11003 | -79.26441 | 33023 ft | 519 kts | 13° |
| 2026-04-16 20:27 | 35.17847 | -79.23636 | 33025 ft | 519 kts | 13° |
| 2026-04-16 20:27 | 35.24692 | -79.20826 | 33028 ft | 519 kts | 13° |
| 2026-04-16 20:28 | 35.31546 | -79.18007 | 33029 ft | 520 kts | 13° |
| 2026-04-16 20:28 | 35.38404 | -79.15181 | 33013 ft | 520 kts | 13° |
| 2026-04-16 20:29 | 35.45267 | -79.12349 | 33001 ft | 520 kts | 13° |
| 2026-04-16 20:29 | 35.52136 | -79.09500 | 33001 ft | 521 kts | 13° |
| 2026-04-16 20:30 | 35.59006 | -79.06644 | 32999 ft | 521 kts | 13° |
| 2026-04-16 20:30 | 35.65876 | -79.03791 | 33001 ft | 521 kts | 13° |
| 2026-04-16 20:31 | 35.72751 | -79.00932 | 33005 ft | 522 kts | 13° |
| 2026-04-16 20:31 | 35.79626 | -78.98069 | 33010 ft | 522 kts | 13° |
| 2026-04-16 20:32 | 35.86505 | -78.95199 | 33008 ft | 522 kts | 13° |
| 2026-04-16 20:32 | 35.93347 | -78.92339 | 33011 ft | 522 kts | 13° |
| 2026-04-16 20:33 | 36.00231 | -78.89455 | 33009 ft | 522 kts | 13° |
| 2026-04-16 20:33 | 36.07111 | -78.86569 | 33008 ft | 522 kts | 13° |
| 2026-04-16 20:34 | 36.13996 | -78.83675 | 33012 ft | 523 kts | 13° |
| 2026-04-16 20:34 | 36.20885 | -78.80746 | 33017 ft | 524 kts | 14° |
| 2026-04-16 20:35 | 36.27740 | -78.77646 | 33012 ft | 525 kts | 15° |
| 2026-04-16 20:35 | 36.34595 | -78.74485 | 32990 ft | 525 kts | 15° |
| 2026-04-16 20:36 | 36.41445 | -78.71334 | 32980 ft | 525 kts | 15° |
| 2026-04-16 20:36 | 36.48301 | -78.68187 | 32985 ft | 525 kts | 15° |
| 2026-04-16 20:37 | 36.55163 | -78.65035 | 32981 ft | 526 kts | 15° |
| 2026-04-16 20:37 | 36.62016 | -78.61880 | 32965 ft | 525 kts | 15° |
| 2026-04-16 20:38 | 36.68876 | -78.58715 | 32967 ft | 526 kts | 15° |
| 2026-04-16 20:38 | 36.75739 | -78.55543 | 32965 ft | 526 kts | 15° |
| 2026-04-16 20:39 | 36.82601 | -78.52365 | 32963 ft | 526 kts | 15° |
| 2026-04-16 20:39 | 36.89464 | -78.49180 | 32962 ft | 526 kts | 15° |
| 2026-04-16 20:40 | 36.96334 | -78.45986 | 32962 ft | 526 kts | 15° |
| 2026-04-16 20:40 | 37.03201 | -78.42775 | 32964 ft | 527 kts | 15° |
| 2026-04-16 20:41 | 37.10062 | -78.39563 | 32947 ft | 527 kts | 15° |
| 2026-04-16 20:41 | 37.16931 | -78.36348 | 32935 ft | 527 kts | 15° |
| 2026-04-16 20:42 | 37.23805 | -78.33128 | 32932 ft | 527 kts | 15° |
| 2026-04-16 20:42 | 37.30678 | -78.29902 | 32917 ft | 527 kts | 15° |
| 2026-04-16 20:43 | 37.37549 | -78.26670 | 32921 ft | 527 kts | 15° |
| 2026-04-16 20:43 | 37.44421 | -78.23432 | 32925 ft | 527 kts | 15° |
| 2026-04-16 20:44 | 37.51296 | -78.20185 | 32928 ft | 528 kts | 15° |
| 2026-04-16 20:44 | 37.58162 | -78.16936 | 32932 ft | 528 kts | 15° |
| 2026-04-16 20:45 | 37.65033 | -78.13679 | 32929 ft | 527 kts | 15° |
| 2026-04-16 20:45 | 37.71904 | -78.10415 | 32923 ft | 527 kts | 15° |
| 2026-04-16 20:46 | 37.78773 | -78.07139 | 32921 ft | 528 kts | 15° |
| 2026-04-16 20:46 | 37.85636 | -78.03851 | 32917 ft | 528 kts | 15° |
| 2026-04-16 20:47 | 37.92502 | -78.00565 | 32916 ft | 527 kts | 15° |
| 2026-04-16 20:47 | 37.99367 | -77.97278 | 32917 ft | 527 kts | 15° |
| 2026-04-16 20:48 | 38.06228 | -77.93986 | 32919 ft | 527 kts | 15° |
| 2026-04-16 20:48 | 38.13090 | -77.90688 | 32918 ft | 528 kts | 15° |
| 2026-04-16 20:49 | 38.19961 | -77.87378 | 32881 ft | 528 kts | 15° |
| 2026-04-16 20:49 | 38.26830 | -77.84063 | 32884 ft | 528 kts | 15° |
| 2026-04-16 20:50 | 38.33701 | -77.80739 | 32883 ft | 528 kts | 15° |
| 2026-04-16 20:50 | 38.40569 | -77.77410 | 32882 ft | 528 kts | 15° |
| 2026-04-16 20:51 | 38.47441 | -77.74072 | 32880 ft | 528 kts | 15° |
| 2026-04-16 20:51 | 38.54305 | -77.70727 | 32871 ft | 528 kts | 16° |
| 2026-04-16 20:52 | 38.61029 | -77.66820 | 32872 ft | 533 kts | 22° |
| 2026-04-16 20:52 | 38.67614 | -77.62415 | 32875 ft | 534 kts | 23° |
| 2026-04-16 20:53 | 38.74179 | -77.57988 | 32871 ft | 533 kts | 23° |
| 2026-04-16 20:53 | 38.80774 | -77.53604 | 32869 ft | 533 kts | 22° |
| 2026-04-16 20:54 | 38.87330 | -77.49269 | 32873 ft | 533 kts | 22° |
| 2026-04-16 20:54 | 38.93931 | -77.44895 | 32871 ft | 534 kts | 22° |
| 2026-04-16 20:55 | 39.00529 | -77.40510 | 32876 ft | 534 kts | 22° |
| 2026-04-16 20:55 | 39.07126 | -77.36115 | 32880 ft | 534 kts | 22° |
| 2026-04-16 20:56 | 39.13723 | -77.31711 | 32903 ft | 534 kts | 22° |
| 2026-04-16 20:56 | 39.20326 | -77.27293 | 32895 ft | 534 kts | 22° |
| 2026-04-16 20:57 | 39.26923 | -77.22871 | 32902 ft | 534 kts | 22° |
| 2026-04-16 20:57 | 39.33503 | -77.18437 | 32904 ft | 534 kts | 23° |
| 2026-04-16 20:58 | 39.40084 | -77.13985 | 32882 ft | 534 kts | 23° |
| 2026-04-16 20:58 | 39.46660 | -77.09543 | 32888 ft | 534 kts | 23° |
| 2026-04-16 20:59 | 39.53253 | -77.05086 | 32880 ft | 534 kts | 23° |
| 2026-04-16 20:59 | 39.59785 | -77.00660 | 32879 ft | 533 kts | 23° |
| 2026-04-16 21:00 | 39.66406 | -76.96164 | 32878 ft | 533 kts | 23° |
| 2026-04-16 21:00 | 39.72939 | -76.91717 | 32882 ft | 533 kts | 23° |
| 2026-04-16 21:01 | 39.79551 | -76.87207 | 32856 ft | 533 kts | 23° |
| 2026-04-16 21:01 | 39.86077 | -76.82747 | 32852 ft | 533 kts | 23° |
| 2026-04-16 21:02 | 39.92645 | -76.78247 | 32852 ft | 533 kts | 23° |
| 2026-04-16 21:03 | 40.02494 | -76.71482 | 32865 ft | 533 kts | 23° |
| 2026-04-16 21:03 | 40.09046 | -76.66948 | 32855 ft | 533 kts | 23° |
| 2026-04-16 21:04 | 40.15598 | -76.62408 | 32856 ft | 533 kts | 23° |
| 2026-04-16 21:04 | 40.22147 | -76.57874 | 32837 ft | 533 kts | 22° |
| 2026-04-16 21:05 | 40.28696 | -76.53334 | 32846 ft | 532 kts | 22° |
| 2026-04-16 21:05 | 40.35244 | -76.48808 | 32843 ft | 532 kts | 22° |
| 2026-04-16 21:06 | 40.40715 | -76.45131 | 32843 ft | 532 kts | 21° |
| 2026-04-16 21:06 | 40.47327 | -76.40739 | 32846 ft | 532 kts | 21° |
| 2026-04-16 21:07 | 40.53927 | -76.36346 | 32904 ft | 532 kts | 21° |
| 2026-04-16 21:07 | 40.60536 | -76.31926 | 32913 ft | 532 kts | 21° |
| 2026-04-16 21:08 | 40.67132 | -76.27502 | 32919 ft | 532 kts | 21° |
| 2026-04-16 21:08 | 40.73735 | -76.23063 | 32912 ft | 533 kts | 21° |
| 2026-04-16 21:09 | 40.80334 | -76.18617 | 32885 ft | 533 kts | 21° |
| 2026-04-16 21:09 | 40.86934 | -76.14160 | 32907 ft | 533 kts | 21° |
| 2026-04-16 21:10 | 40.93540 | -76.09690 | 32924 ft | 533 kts | 21° |
| 2026-04-16 21:10 | 41.00141 | -76.05213 | 32916 ft | 533 kts | 21° |
| 2026-04-16 21:11 | 41.06742 | -76.00725 | 32918 ft | 533 kts | 21° |
| 2026-04-16 21:11 | 41.13341 | -75.96208 | 32904 ft | 534 kts | 21° |
| 2026-04-16 21:12 | 41.19935 | -75.91687 | 32843 ft | 533 kts | 21° |
| 2026-04-16 21:12 | 41.26539 | -75.87164 | 32838 ft | 534 kts | 21° |
| 2026-04-16 21:13 | 41.33141 | -75.82635 | 32838 ft | 534 kts | 21° |
| 2026-04-16 21:13 | 41.39749 | -75.78092 | 32833 ft | 535 kts | 21° |
| 2026-04-16 21:14 | 41.46360 | -75.73536 | 32838 ft | 535 kts | 21° |
| 2026-04-16 21:14 | 41.52982 | -75.68962 | 32840 ft | 535 kts | 21° |
| 2026-04-16 21:15 | 41.59600 | -75.64379 | 32846 ft | 536 kts | 21° |
| 2026-04-16 21:15 | 41.66214 | -75.59788 | 32858 ft | 536 kts | 21° |
| 2026-04-16 21:16 | 41.72838 | -75.55180 | 32856 ft | 536 kts | 21° |
| 2026-04-16 21:16 | 41.79447 | -75.50572 | 32860 ft | 536 kts | 21° |
| 2026-04-16 21:17 | 41.86054 | -75.45937 | 32865 ft | 536 kts | 21° |
| 2026-04-16 21:17 | 41.92620 | -75.41315 | 32869 ft | 536 kts | 22° |
| 2026-04-16 21:18 | 41.99229 | -75.36667 | 32866 ft | 536 kts | 22° |
| 2026-04-16 21:18 | 42.05831 | -75.32013 | 32867 ft | 536 kts | 22° |
| 2026-04-16 21:19 | 42.12399 | -75.27233 | 32858 ft | 537 kts | 23° |
| 2026-04-16 21:19 | 42.18943 | -75.22391 | 32859 ft | 537 kts | 23° |
| 2026-04-16 21:20 | 42.25487 | -75.17542 | 32854 ft | 536 kts | 23° |
| 2026-04-16 21:20 | 42.32026 | -75.12699 | 32856 ft | 536 kts | 23° |
| 2026-04-16 21:21 | 42.38565 | -75.07848 | 32845 ft | 536 kts | 23° |
| 2026-04-16 21:21 | 42.45093 | -75.02994 | 32840 ft | 535 kts | 23° |
| 2026-04-16 21:22 | 42.51612 | -74.98133 | 32842 ft | 534 kts | 23° |
| 2026-04-16 21:22 | 42.58125 | -74.93264 | 32833 ft | 534 kts | 23° |
| 2026-04-16 21:23 | 42.64618 | -74.88401 | 32826 ft | 533 kts | 23° |
| 2026-04-16 21:23 | 42.71111 | -74.83525 | 32820 ft | 532 kts | 23° |
| 2026-04-16 21:24 | 42.77581 | -74.78654 | 32821 ft | 531 kts | 23° |
| 2026-04-16 21:24 | 42.84035 | -74.73759 | 32815 ft | 530 kts | 24° |
| 2026-04-16 21:25 | 42.90432 | -74.68899 | 32814 ft | 530 kts | 24° |
| 2026-04-16 21:25 | 42.96868 | -74.64015 | 32815 ft | 529 kts | 24° |
| 2026-04-16 21:26 | 43.03300 | -74.59128 | 32817 ft | 529 kts | 24° |
| 2026-04-16 21:26 | 43.09721 | -74.54237 | 32815 ft | 528 kts | 24° |
| 2026-04-16 21:27 | 43.16143 | -74.49332 | 32814 ft | 528 kts | 24° |
| 2026-04-16 21:27 | 43.22560 | -74.44419 | 32815 ft | 528 kts | 24° |
| 2026-04-16 21:28 | 43.28970 | -74.39499 | 32818 ft | 528 kts | 24° |
| 2026-04-16 21:28 | 43.35380 | -74.34567 | 32822 ft | 528 kts | 24° |
| 2026-04-16 21:29 | 43.41913 | -74.30027 | 32828 ft | 524 kts | 19° |
| 2026-04-16 21:29 | 43.48606 | -74.26056 | 32827 ft | 524 kts | 17° |
| 2026-04-16 21:30 | 43.55312 | -74.22154 | 32821 ft | 523 kts | 18° |
| 2026-04-16 21:30 | 43.61996 | -74.18194 | 32823 ft | 523 kts | 18° |
| 2026-04-16 21:31 | 43.68663 | -74.14198 | 32812 ft | 522 kts | 18° |
| 2026-04-16 21:31 | 43.75331 | -74.10188 | 32817 ft | 522 kts | 18° |
| 2026-04-16 21:32 | 43.81985 | -74.06178 | 32815 ft | 522 kts | 18° |
| 2026-04-16 21:32 | 43.88626 | -74.02169 | 32808 ft | 520 kts | 18° |
| 2026-04-16 21:33 | 43.95216 | -73.98181 | 32816 ft | 520 kts | 18° |
| 2026-04-16 21:33 | 44.01822 | -73.94172 | 32425 ft | 515 kts | 18° |
| 2026-04-16 21:33 | 44.05098 | -73.92179 | 31841 ft | 515 kts | 18° |
| 2026-04-16 21:34 | 44.08377 | -73.90185 | 31209 ft | 515 kts | 18° |
| 2026-04-16 21:34 | 44.11667 | -73.88184 | 30616 ft | 517 kts | 18° |
| 2026-04-16 21:34 | 44.14972 | -73.86166 | 30130 ft | 521 kts | 19° |
| 2026-04-16 21:34 | 44.18293 | -73.84128 | 29482 ft | 522 kts | 19° |
| 2026-04-16 21:35 | 44.21538 | -73.82132 | 28799 ft | 518 kts | 19° |
| 2026-04-16 21:35 | 44.24825 | -73.80110 | 28125 ft | 513 kts | 19° |
| 2026-04-16 21:35 | 44.28082 | -73.78105 | 27478 ft | 509 kts | 19° |
| 2026-04-16 21:35 | 44.31301 | -73.76123 | 26817 ft | 503 kts | 18° |
| 2026-04-16 21:36 | 44.34490 | -73.74159 | 26175 ft | 499 kts | 18° |
| 2026-04-16 21:36 | 44.37647 | -73.72216 | 25533 ft | 494 kts | 18° |
| 2026-04-16 21:36 | 44.40773 | -73.70290 | 24907 ft | 489 kts | 18° |
| 2026-04-16 21:36 | 44.43869 | -73.68381 | 24247 ft | 484 kts | 18° |
| 2026-04-16 21:37 | 44.46931 | -73.66491 | 23633 ft | 479 kts | 18° |
| 2026-04-16 21:37 | 44.49966 | -73.64615 | 22956 ft | 475 kts | 18° |
| 2026-04-16 21:37 | 44.52979 | -73.62752 | 22285 ft | 470 kts | 18° |
| 2026-04-16 21:37 | 44.55959 | -73.60906 | 21665 ft | 467 kts | 18° |
| 2026-04-16 21:38 | 44.58920 | -73.59070 | 21047 ft | 464 kts | 17° |
| 2026-04-16 21:38 | 44.61858 | -73.57247 | 20446 ft | 460 kts | 17° |
| 2026-04-16 21:38 | 44.64780 | -73.55432 | 19863 ft | 457 kts | 17° |
| 2026-04-16 21:38 | 44.67677 | -73.53646 | 19278 ft | 451 kts | 15° |
| 2026-04-16 21:39 | 44.70633 | -73.52429 | 18649 ft | 436 kts | 0° |
| 2026-04-16 21:39 | 44.73591 | -73.52230 | 18029 ft | 419 kts | 349° |
| 2026-04-16 21:39 | 44.76472 | -73.52558 | 17340 ft | 411 kts | 345° |
| 2026-04-16 21:39 | 44.79290 | -73.53039 | 16716 ft | 406 kts | 344° |
| 2026-04-16 21:40 | 44.82085 | -73.53523 | 16117 ft | 403 kts | 345° |
| 2026-04-16 21:40 | 44.84861 | -73.53960 | 15528 ft | 400 kts | 345° |
| 2026-04-16 21:40 | 44.87627 | -73.54340 | 14948 ft | 397 kts | 346° |
| 2026-04-16 21:40 | 44.90367 | -73.54676 | 14400 ft | 394 kts | 346° |
| 2026-04-16 21:41 | 44.93090 | -73.54987 | 13841 ft | 391 kts | 346° |
| 2026-04-16 21:41 | 44.95788 | -73.55288 | 13252 ft | 388 kts | 346° |
| 2026-04-16 21:41 | 44.98469 | -73.55583 | 12658 ft | 384 kts | 346° |
| 2026-04-16 21:41 | 45.01116 | -73.55872 | 12218 ft | 380 kts | 346° |
| 2026-04-16 21:42 | 45.03747 | -73.56162 | 11846 ft | 378 kts | 346° |
| 2026-04-16 21:42 | 45.06328 | -73.56448 | 11483 ft | 376 kts | 346° |
| 2026-04-16 21:42 | 45.08930 | -73.56736 | 11121 ft | 374 kts | 346° |
| 2026-04-16 21:42 | 45.11234 | -73.56986 | 10992 ft | 361 kts | 346° |
| 2026-04-16 21:43 | 45.13667 | -73.57237 | 10902 ft | 341 kts | 346° |
| 2026-04-16 21:43 | 45.15970 | -73.57476 | 10798 ft | 324 kts | 345° |
| 2026-04-16 21:43 | 45.18167 | -73.57710 | 10680 ft | 309 kts | 345° |
| 2026-04-16 21:43 | 45.20264 | -73.57939 | 10561 ft | 298 kts | 345° |
| 2026-04-16 21:44 | 45.22321 | -73.58175 | 10420 ft | 296 kts | 344° |
| 2026-04-16 21:44 | 45.24378 | -73.58418 | 10081 ft | 297 kts | 345° |
| 2026-04-16 21:44 | 45.26446 | -73.58660 | 9549 ft | 300 kts | 345° |
| 2026-04-16 21:44 | 45.28537 | -73.58904 | 8988 ft | 303 kts | 346° |
| 2026-04-16 21:45 | 45.30649 | -73.59144 | 8456 ft | 305 kts | 346° |
| 2026-04-16 21:45 | 45.32745 | -73.59375 | 7971 ft | 296 kts | 347° |
| 2026-04-16 21:45 | 45.34754 | -73.59585 | 7506 ft | 287 kts | 347° |
| 2026-04-16 21:45 | 45.36750 | -73.59807 | 7052 ft | 288 kts | 348° |
| 2026-04-16 21:46 | 45.38763 | -73.59810 | 6587 ft | 295 kts | 3° |
| 2026-04-16 21:46 | 45.40718 | -73.58792 | 6161 ft | 305 kts | 23° |
| 2026-04-16 21:46 | 45.42535 | -73.57206 | 5668 ft | 307 kts | 29° |
| 2026-04-16 21:46 | 45.44295 | -73.55485 | 5232 ft | 306 kts | 31° |
| 2026-04-16 21:47 | 45.46040 | -73.53749 | 4787 ft | 305 kts | 30° |
| 2026-04-16 21:47 | 45.47775 | -73.52032 | 4403 ft | 301 kts | 30° |
| 2026-04-16 21:47 | 45.49462 | -73.50371 | 4254 ft | 288 kts | 30° |
| 2026-04-16 21:47 | 45.51077 | -73.48788 | 4119 ft | 275 kts | 29° |
| 2026-04-16 21:48 | 45.52623 | -73.47279 | 3991 ft | 264 kts | 29° |
| 2026-04-16 21:48 | 45.54098 | -73.45839 | 3975 ft | 250 kts | 28° |
| 2026-04-16 21:48 | 45.55519 | -73.44457 | 3974 ft | 245 kts | 29° |
| 2026-04-16 21:48 | 45.56875 | -73.42955 | 3971 ft | 248 kts | 36° |
| 2026-04-16 21:49 | 45.58169 | -73.41323 | 3977 ft | 248 kts | 37° |
| 2026-04-16 21:49 | 45.59565 | -73.39947 | 3950 ft | 240 kts | 15° |
| 2026-04-16 21:49 | 45.61132 | -73.39716 | 3889 ft | 220 kts | 339° |
| 2026-04-16 21:49 | 45.62384 | -73.40786 | 3830 ft | 208 kts | 305° |
| 2026-04-16 21:50 | 45.62952 | -73.42619 | 3772 ft | 203 kts | 274° |
| 2026-04-16 21:50 | 45.62720 | -73.44594 | 3731 ft | 205 kts | 253° |
| 2026-04-16 21:50 | 45.62189 | -73.46505 | 3639 ft | 208 kts | 252° |
| 2026-04-16 21:50 | 45.61888 | -73.48526 | 3372 ft | 209 kts | 270° |
| 2026-04-16 21:51 | 45.62169 | -73.50516 | 3092 ft | 204 kts | 288° |
| 2026-04-16 21:51 | 45.62522 | -73.52376 | 3014 ft | 185 kts | 275° |
| 2026-04-16 21:51 | 45.62377 | -73.54087 | 3007 ft | 167 kts | 252° |
| 2026-04-16 21:51 | 45.61753 | -73.55433 | 2975 ft | 161 kts | 232° |
| 2026-04-16 21:52 | 45.60991 | -73.56593 | 3023 ft | 157 kts | 233° |
| 2026-04-16 21:52 | 45.60256 | -73.57727 | 3051 ft | 155 kts | 232° |
| 2026-04-16 21:52 | 45.59502 | -73.58833 | 3025 ft | 156 kts | 231° |
| 2026-04-16 21:52 | 45.58721 | -73.59916 | 2896 ft | 157 kts | 229° |
| 2026-04-16 21:53 | 45.57914 | -73.60964 | 2696 ft | 156 kts | 229° |
| 2026-04-16 21:53 | 45.57124 | -73.62001 | 2479 ft | 152 kts | 228° |
| 2026-04-16 21:53 | 45.56345 | -73.63023 | 2267 ft | 153 kts | 229° |
| 2026-04-16 21:53 | 45.55561 | -73.64059 | 2060 ft | 154 kts | 228° |
| 2026-04-16 21:54 | 45.55040 | -73.64744 | 1915 ft | 153 kts | 228° |
| 2026-04-16 21:54 | 45.54259 | -73.65772 | 1723 ft | 152 kts | 228° |
| 2026-04-16 21:54 | 45.53482 | -73.66798 | 1521 ft | 153 kts | 227° |
| 2026-04-16 21:54 | 45.52698 | -73.67832 | 1299 ft | 154 kts | 227° |
| 2026-04-16 21:55 | 45.51904 | -73.68878 | 1102 ft | 155 kts | 226° |
| 2026-04-16 21:55 | 45.51105 | -73.69931 | 839 ft | 159 kts | 225° |
| 2026-04-16 21:55 | 45.50278 | -73.71021 | 654 ft | 165 kts | 224° |
| 2026-04-16 21:55 | 45.49427 | -73.72141 | 450 ft | 168 kts | 224° |
| 2026-04-16 21:56 | 45.48569 | -73.73271 | 243 ft | 168 kts | 223° |
| 2026-04-16 21:56 | 45.47726 | -73.74369 | 117 ft | 150 kts | 222° |
| 2026-04-16 21:56 | 45.47064 | -73.75226 | 114 ft | 106 kts | 222° |
| 2026-04-16 21:56 | 45.46615 | -73.75811 | 112 ft | 68 kts | 222° |
| 2026-04-16 21:57 | 45.46438 | -73.76042 | 110 ft | 19 kts | 223° |
| 2026-04-16 21:57 | 45.46364 | -73.76140 | 110 ft | 13 kts | 223° |
| 2026-04-16 21:57 | 45.46302 | -73.76221 | 111 ft | 11 kts | 223° |
| 2026-04-16 21:57 | 45.46251 | -73.76288 | 110 ft | 9 kts | 223° |
| 2026-04-16 21:58 | 45.46212 | -73.76339 | 112 ft | 6 kts | 223° |
| 2026-04-16 21:58 | 45.46177 | -73.76385 | 111 ft | 9 kts | 223° |
| 2026-04-16 21:58 | 45.46131 | -73.76426 | 112 ft | 5 kts | 185° |
| 2026-04-16 21:58 | 45.46078 | -73.76420 | 111 ft | 11 kts | 171° |
| 2026-04-16 21:59 | 45.46014 | -73.76346 | 110 ft | 11 kts | 111° |
| 2026-04-16 21:59 | 45.46025 | -73.76261 | 109 ft | 7 kts | 55° |
| 2026-04-16 21:59 | 45.46054 | -73.76209 | 109 ft | 7 kts | 51° |
| 2026-04-16 21:59 | 45.46073 | -73.76139 | 110 ft | 6 kts | 88° |
| 2026-04-16 22:00 | 45.46065 | -73.76096 | 109 ft | 4 kts | 111° |
| 2026-04-16 22:00 | 45.46049 | -73.76070 | 112 ft | 4 kts | 144° |
| 2026-04-16 22:00 | 45.46007 | -73.76071 | 112 ft | 6 kts | 197° |
| 2026-04-16 22:00 | 45.45991 | -73.76090 | 112 ft | 1 kts | 238° |
| 2026-04-16 22:01 | 45.45974 | -73.76131 | 111 ft | 7 kts | 238° |
| 2026-04-16 22:01 | 45.45956 | -73.76167 | 110 ft | 0 kts | 237° |
| 2026-04-16 22:01 | 45.45951 | -73.76179 | 108 ft | 0 kts | 239° |